首页
METAR-TAF:

METAR-TAF

机场 :

Show Low, 亞利桑那州, 美国

纬度: 34-16N, 经度: 110-00W, 海拔: 1954米

当前天气观测

该预报发布于17分钟前的19:35 UTC
风速24节,风向南转西南,有时为34节阵风
温度 16°C
湿度 23%
气压 1014 hPa
能見度: 16.1公里
天空无云

METAR: KSOW 021935Z AUTO 20024G34KT 10SM CLR 16/M05 A2994 RMK AO2

时间: 12:52 (19:52 UTC)


TAF: 丢失

超过4000个机场的气象观测和天气预报(METAR&TAF报告)。

可查询的气象台以黄色和红色小点在地图上表示。

将鼠标移到小点上方,可查看气象台名称。

然后点击查看天气观测和预报。

如需切换地图:点击带黑十字的绿色按钮放大地图;点击带横线的绿色按钮缩小地图;或者点击绿色箭头查看邻近地区的地图。


METAR-TAF: